To NAV CANADA Home Page Login to a new session Search on AWWS site Disclaimer Vers la page française équivalente Tips FAQ What's new on the site To the Forecasts and Observations / NOTAM section To "File a Flight Plan" website Publications and other links Update of the User's profile FIC Telephone Numbers My Weather Data Folder Route Weather Data Regional Weather Data Local Weather Data To the Forecasts and Observations / NOTAM section
Request Generated 05/19/2019 at 15:24:01 UTC . Weather information available at that time is displayed.

METAR/TAF

CALGARY/YYC CALGARY INTL/AB    

METAR CYYC 191500Z 15012KT 15SM FEW017 05/00 A3007 RMK CU2 SLP216=
METAR CYYC 191400Z 16012KT 15SM FEW010 FEW300 04/01 A3006 RMK SC1CI1 SLP213=
SPECI CYYC 191327Z 17010KT 15SM FEW010 FEW300 03/02 A3006 RMK SC1CI1 SLP213=
METAR CYYC 191300Z 16007KT 2 1/2SM BR FEW006 BKN016 02/01 A3006 RMK ST2SC3 SLP214=

TAF CYYC 191439Z 1915/2012 16012KT P6SM FEW020 TEMPO 1915/1918 FEW010
BKN020
FM191800 16015G25KT P6SM BKN040
FM200300 18008KT P6SM BKN060
RMK NXT FCST BY 191800Z=
Your time UTC time
Weather data provided by Environment Canada and NAV CANADA